Orchard Park, NY (14127)

7:27 AM EST on November 23, 2014 (GMT -0500)
Hawthorne Dr. | Change Station
CLOSE
Current Station
Personal Weather Station
Location: Orchard Park, NY
Elevation: 787 ft
Nearby Weather Stations

Elev 787 ft 42.78 °N, 78.74 °W | Updated 1 second ago

Overcast
Overcast
42.3 °F
Feels Like 42 °F
N
0.0
Wind Variable Wind from NNE
Gusts 1.0 mph

Today
High -- | Low -- °F
--% Chance of Precip.
Yesterday
High -- | Low -- °F
Precip. -- in
7:16 AM 4:45 PM
New Moon, 1% visible
Pressure 30.01 in
Visibility 10.0 miles
Clouds Mostly Cloudy 3000 ft
Overcast 6000 ft
Windchill 42 °F
Dew Point 38 °F
Humidity 83%
Rainfall 0.18 in
Snow Depth Not available.
UV 0 out of 12
Pollen .10 out of 12
Air Quality Not available.
Flu Activity Not available.
METAR KBUF 231154Z 21004KT 10SM BKN030 OVC060 07/02 A3001

More Conditions Fewer Conditions

Pressure 30.01 in
Visibility 10.0 miles
Clouds Mostly Cloudy 3000 ft
Overcast 6000 ft
Windchill 42 °F
Dew Point 38 °F
Humidity 83%
Rainfall 0.18 in
Snow Depth Not available.
UV 0 out of 12
Pollen .10 out of 12
Air Quality Not available.
Flu Activity Not available.
METAR KBUF 231154Z 21004KT 10SM BKN030 OVC060 07/02 A3001

More Conditions Fewer Conditions

10-Day Weather Forecast

Almanac

Astronomy

Nov. 23, 2014 Rise Set
Actual Time
Civil Twilight
Nautical Twilight
Astronomical Twilight
Moon
Length of Visible Light
Length of Day
Tomorrow will be .
, % of the Moon is Illuminated

Today's Extremes

State Highs State Lows

Community

WunderPhotos

Upload Photos

1,773,050 photos uploaded!

WunderBlogs® & News

Nearby

Air Quality

  Air Quality AQ Index Pollutant
Not available.

Snow Depth

Station Depth Elevation

Earthquake Activity

City Distance Mag. Time & Date
Minimum magnitude displayed is 2.5.

Coastal Water Temperatures

Place Temperature

Nearby Weather Stations